Hudson, Kentucky
Current Conditions -  °F | °C
As of 5:58 PM on Saturday 22 Nov 2014 (Local Time) from KFTK Reporting Station
Broken Clouds Broken Clouds  
Wind Chill: 51°   Ceiling: 18000
Heat Index: 51°   Visibility: 10mi
Dew Point: 34°   Wind: 8mph
Humidity: 52%   Direction: 160°SSE
Pressure: 30.1"   Gusts: NA
Location:  37.65°N, 86.28°W
Report Text: KFTK 222358Z AUTO 16007KT 10SM BKN180 10/01 A3010 RMK AO2 SLP197 T01040010 10174 20104 55007
Loading
Personal Weather Stations






























Interactive Weather Map New forecast layout! Learn more

10-Day Weather Forecast

Advertisements
Track Severe Weather on mobile